Time;durP1;ratioP1;P1;durP2;ratioP2;P2;SDS_P1;SDS_P2;PMS_P1;PMS_P2;Temp;Humidity;BMP_temperature;BMP_pressure;BME280_temperature;BME280_humidity;BME280_pressure;Samples;Min_cycle;Max_cycle;Signal;HPM_P1;HPM_P2
2021/01/14 00:02:02;;;;;;;24.70;10.05;;;3.10;99.90;;;;;;4992907;28;20109;-60
2021/01/14 00:04:27;;;;;;;20.25;10.10;;;3.10;99.90;;;;;;4992246;28;20113;-61
2021/01/14 00:06:54;;;;;;;39.10;11.57;;;3.00;99.90;;;;;;4991150;28;20117;-59
2021/01/14 00:09:20;;;;;;;29.85;11.90;;;3.00;99.90;;;;;;4993807;28;20025;-58
2021/01/14 00:11:45;;;;;;;22.88;11.15;;;3.00;99.90;;;;;;4993613;28;20018;-63
2021/01/14 00:14:11;;;;;;;25.15;12.32;;;3.00;99.90;;;;;;4989634;28;20018;-59
2021/01/14 00:16:37;;;;;;;27.85;12.63;;;3.00;99.90;;;;;;4994212;28;20488;-62
2021/01/14 00:19:04;;;;;;;28.45;12.65;;;3.10;99.90;;;;;;4990109;28;20029;-59
2021/01/14 00:21:29;;;;;;;20.73;11.75;;;3.10;99.90;;;;;;4993825;28;20053;-60
2021/01/14 00:23:55;;;;;;;29.92;14.85;;;3.00;99.90;;;;;;4993368;28;20062;-61
2021/01/14 00:26:21;;;;;;;28.23;13.73;;;3.00;99.90;;;;;;4991750;28;20022;-60
2021/01/14 00:28:46;;;;;;;22.70;10.68;;;3.00;99.90;;;;;;4991693;28;20496;-60
2021/01/14 00:31:12;;;;;;;21.95;10.43;;;3.10;99.90;;;;;;4992536;28;20029;-61
2021/01/14 00:33:37;;;;;;;17.98;8.88;;;3.00;99.90;;;;;;4993259;28;20034;-60
2021/01/14 00:36:03;;;;;;;27.15;8.95;;;3.00;99.90;;;;;;4989501;28;20058;-61
2021/01/14 00:38:29;;;;;;;15.45;8.55;;;3.10;99.90;;;;;;4993905;28;20492;-58
2021/01/14 00:40:54;;;;;;;20.90;6.88;;;3.00;99.90;;;;;;4991414;28;20109;-61
2021/01/14 00:43:20;;;;;;;17.15;6.60;;;3.00;99.90;;;;;;4993369;28;20070;-61
2021/01/14 00:45:47;;;;;;;19.63;7.32;;;2.90;99.90;;;;;;4991436;28;20053;-62
2021/01/14 00:48:12;;;;;;;17.80;7.32;;;2.90;99.90;;;;;;4988196;28;20495;-59
2021/01/14 00:50:38;;;;;;;23.45;8.02;;;2.90;99.90;;;;;;4993632;28;20073;-58
2021/01/14 00:53:03;;;;;;;22.15;7.78;;;2.90;99.90;;;;;;4992448;28;20049;-60
2021/01/14 00:55:29;;;;;;;25.55;9.65;;;2.90;99.90;;;;;;4996015;28;20026;-60
2021/01/14 00:57:55;;;;;;;27.63;8.85;;;2.90;99.90;;;;;;4997196;28;20089;-61
2021/01/14 01:00:22;;;;;;;19.85;8.10;;;2.90;99.90;;;;;;4994012;28;20480;-61
2021/01/14 01:02:49;;;;;;;19.77;8.65;;;2.90;99.90;;;;;;4987710;28;20125;-58
2021/01/14 01:05:15;;;;;;;20.05;8.75;;;3.00;99.90;;;;;;4992931;28;20424;-58
2021/01/14 01:07:51;;;;;;;29.17;6.30;;;3.00;99.90;;;;;;4992543;28;20042;-62
2021/01/14 01:10:17;;;;;;;10.43;3.03;;;3.10;99.90;;;;;;4993473;28;20014;-59
2021/01/14 01:12:43;;;;;;;9.27;3.03;;;3.00;99.90;;;;;;4992462;28;20085;-60
2021/01/14 01:15:09;;;;;;;10.68;2.15;;;2.90;99.90;;;;;;4993432;28;20031;-59
2021/01/14 01:17:34;;;;;;;10.98;1.85;;;2.80;99.90;;;;;;4992786;28;20026;-59
2021/01/14 01:20:00;;;;;;;10.70;2.00;;;2.80;99.90;;;;;;4992438;28;20026;-60
2021/01/14 01:22:26;;;;;;;14.70;1.77;;;2.80;99.90;;;;;;4989864;28;20030;-61
2021/01/14 01:24:52;;;;;;;6.50;1.70;;;2.70;99.90;;;;;;4986837;28;20176;-59
2021/01/14 01:27:17;;;;;;;8.23;1.10;;;2.70;99.90;;;;;;4992323;28;20121;-58
2021/01/14 01:29:44;;;;;;;7.38;1.52;;;2.60;99.90;;;;;;4992846;28;20029;-60
2021/01/14 01:32:09;;;;;;;8.85;1.60;;;2.50;99.90;;;;;;4992495;28;20030;-59
2021/01/14 01:34:35;;;;;;;8.55;1.50;;;2.50;99.90;;;;;;4982321;28;20485;-60
2021/01/14 01:37:00;;;;;;;4.28;1.10;;;2.50;99.90;;;;;;4997469;28;20431;-61
2021/01/14 01:39:26;;;;;;;6.53;1.48;;;2.50;99.90;;;;;;4988215;28;20492;-60
2021/01/14 01:41:56;;;;;;;7.40;1.83;;;2.50;99.90;;;;;;4991049;28;20140;-58
2021/01/14 01:44:23;;;;;;;10.38;1.15;;;2.40;99.90;;;;;;4992591;28;20034;-60
2021/01/14 01:46:48;;;;;;;6.72;1.23;;;2.40;99.90;;;;;;4992630;28;20030;-58
2021/01/14 01:49:14;;;;;;;7.32;1.52;;;2.40;99.90;;;;;;4991443;28;20419;-58
2021/01/14 01:51:42;;;;;;;5.70;1.10;;;2.30;99.90;;;;;;4992734;28;20037;-62
2021/01/14 01:54:10;;;;;;;10.93;1.08;;;2.30;99.90;;;;;;4991936;28;20120;-61
2021/01/14 01:56:36;;;;;;;7.90;1.23;;;2.30;99.90;;;;;;4992007;28;20500;-61
2021/01/14 01:59:02;;;;;;;4.60;0.98;;;2.20;99.90;;;;;;4991779;28;20049;-60
2021/01/14 02:01:28;;;;;;;7.50;1.20;;;2.20;99.90;;;;;;4991946;28;20066;-60
2021/01/14 02:03:53;;;;;;;9.73;1.55;;;2.20;99.90;;;;;;4991764;28;20030;-61
2021/01/14 02:06:19;;;;;;;8.85;1.27;;;2.20;99.90;;;;;;4991689;28;20077;-61
2021/01/14 02:08:59;;;;;;;8.43;1.13;;;2.20;99.90;;;;;;4992357;28;20396;-62
2021/01/14 02:11:29;;;;;;;15.35;2.00;;;2.20;99.90;;;;;;4991250;28;20507;-60
2021/01/14 02:14:24;;;;;;;6.80;0.93;;;2.10;99.90;;;;;;4991893;28;20037;-60
2021/01/14 02:16:50;;;;;;;22.10;2.42;;;2.10;99.90;;;;;;4989407;28;20084;-63
2021/01/14 02:19:20;;;;;;;9.82;1.73;;;2.00;99.90;;;;;;4991247;28;20092;-61
2021/01/14 02:21:49;;;;;;;9.40;1.25;;;2.00;99.90;;;;;;4992471;28;20029;-61
2021/01/14 02:25:09;;;;;;;8.85;1.65;;;2.00;99.90;;;;;;4990307;28;20034;-61
2021/01/14 02:27:36;;;;;;;7.80;1.23;;;2.00;99.90;;;;;;4969205;28;20039;-61
2021/01/14 02:30:08;;;;;;;11.65;1.40;;;1.90;99.90;;;;;;4990806;28;20054;-62
2021/01/14 02:32:34;;;;;;;8.55;1.75;;;1.90;99.90;;;;;;4989075;28;20373;-61
2021/01/14 02:34:59;;;;;;;6.75;1.00;;;1.90;99.90;;;;;;4989365;28;20069;-58
2021/01/14 02:37:25;;;;;;;17.13;1.50;;;1.80;99.90;;;;;;4996215;28;20027;-60
2021/01/14 02:39:51;;;;;;;7.07;1.30;;;1.80;99.90;;;;;;4989744;28;20042;-61
2021/01/14 02:42:17;;;;;;;5.07;1.05;;;1.80;99.90;;;;;;4989764;28;20030;-61
2021/01/14 02:44:42;;;;;;;16.55;1.40;;;1.80;99.90;;;;;;4983694;28;20038;-61
2021/01/14 02:47:10;;;;;;;11.85;1.23;;;1.70;99.90;;;;;;4991105;28;20088;-58
2021/01/14 02:49:50;;;;;;;6.60;1.10;;;1.70;99.90;;;;;;4991287;28;20515;-56
2021/01/14 02:52:17;;;;;;;11.63;1.50;;;1.70;99.90;;;;;;4991784;28;20026;-55
2021/01/14 02:54:44;;;;;;;13.82;1.40;;;1.70;99.90;;;;;;4991079;28;20022;-61
2021/01/14 02:57:10;;;;;;;15.02;1.20;;;1.60;99.90;;;;;;4987002;28;20031;-62
2021/01/14 02:59:36;;;;;;;14.38;1.95;;;1.60;99.90;;;;;;4988772;28;20034;-61
2021/01/14 03:02:01;;;;;;;5.03;1.05;;;1.60;99.90;;;;;;4990851;28;20092;-61
2021/01/14 03:04:27;;;;;;;1.63;0.75;;;1.60;99.90;;;;;;4985265;28;20681;-60
2021/01/14 03:06:53;;;;;;;6.15;0.93;;;1.70;99.90;;;;;;4991524;28;20560;-60
2021/01/14 03:09:19;;;;;;;11.32;1.45;;;1.70;99.90;;;;;;4991047;28;20026;-61
2021/01/14 03:11:44;;;;;;;8.30;0.75;;;1.70;99.90;;;;;;4990215;28;20069;-63
2021/01/14 03:14:10;;;;;;;16.25;1.80;;;1.70;99.90;;;;;;4984504;28;20515;-59
2021/01/14 03:16:36;;;;;;;6.65;1.40;;;1.70;99.90;;;;;;4991528;28;20089;-61
2021/01/14 03:19:02;;;;;;;9.57;1.25;;;1.70;99.90;;;;;;4990809;28;20443;-59
2021/01/14 03:21:27;;;;;;;25.98;3.13;;;1.70;99.90;;;;;;4991370;28;20038;-59
2021/01/14 03:23:53;;;;;;;11.18;1.13;;;1.70;99.90;;;;;;4990933;28;20475;-61
2021/01/14 03:26:19;;;;;;;8.82;1.08;;;1.80;99.90;;;;;;4991020;28;20027;-60
2021/01/14 03:28:46;;;;;;;11.52;1.63;;;1.70;99.90;;;;;;4991110;28;20037;-62
2021/01/14 03:31:13;;;;;;;13.98;1.38;;;1.70;99.90;;;;;;4990363;28;20037;-61
2021/01/14 03:33:40;;;;;;;7.88;1.30;;;1.70;99.90;;;;;;4992641;28;20023;-60
2021/01/14 03:36:07;;;;;;;8.75;3.53;;;1.70;99.90;;;;;;4991943;28;20081;-62
2021/01/14 03:38:35;;;;;;;7.78;1.23;;;1.60;99.90;;;;;;4994988;28;20488;-59
2021/01/14 03:41:01;;;;;;;15.05;1.80;;;1.70;99.90;;;;;;4994885;28;20480;-60
2021/01/14 03:43:26;;;;;;;5.43;1.33;;;1.70;99.90;;;;;;4994856;28;20057;-61
2021/01/14 03:45:52;;;;;;;9.95;1.23;;;1.70;99.90;;;;;;4994327;28;20040;-59
2021/01/14 03:48:17;;;;;;;10.82;2.55;;;1.70;99.90;;;;;;4994612;28;20060;-60
2021/01/14 03:50:43;;;;;;;9.05;1.48;;;1.70;99.90;;;;;;4994481;28;20399;-62
2021/01/14 03:53:08;;;;;;;5.80;1.80;;;1.70;99.90;;;;;;4994226;28;20080;-61
2021/01/14 03:55:34;;;;;;;17.33;1.27;;;1.70;99.90;;;;;;4991872;28;20034;-59
2021/01/14 03:57:59;;;;;;;6.72;1.15;;;1.70;99.90;;;;;;5014579;23;20050;-61
2021/01/14 04:00:25;;;;;;;10.05;2.65;;;1.70;99.90;;;;;;5013904;28;20109;-60
2021/01/14 04:02:51;;;;;;;7.18;1.23;;;1.70;99.90;;;;;;5013731;28;20097;-59
2021/01/14 04:05:16;;;;;;;6.35;1.25;;;1.60;99.90;;;;;;5009756;28;20034;-60
2021/01/14 04:07:42;;;;;;;5.20;0.80;;;1.60;99.90;;;;;;5014003;28;20037;-60
2021/01/14 04:10:08;;;;;;;11.85;1.42;;;1.60;99.90;;;;;;5013122;28;20026;-61
2021/01/14 04:12:34;;;;;;;5.60;1.17;;;1.60;99.90;;;;;;5013693;28;20032;-60
2021/01/14 04:15:00;;;;;;;8.73;0.98;;;1.60;99.90;;;;;;5013582;28;20026;-59
2021/01/14 04:17:26;;;;;;;9.98;1.48;;;1.50;99.90;;;;;;5029051;28;20541;-57
2021/01/14 04:19:52;;;;;;;14.05;1.45;;;1.50;99.90;;;;;;5012099;28;20040;-58
2021/01/14 04:22:17;;;;;;;9.98;1.52;;;1.50;99.90;;;;;;5013572;28;20025;-58
2021/01/14 04:24:43;;;;;;;5.50;1.52;;;1.50;99.90;;;;;;5013512;28;20053;-56
2021/01/14 04:27:09;;;;;;;10.27;1.70;;;1.40;99.90;;;;;;5012727;28;20033;-61
2021/01/14 04:29:35;;;;;;;11.13;1.83;;;1.40;99.90;;;;;;5013299;28;20105;-60
2021/01/14 04:32:01;;;;;;;20.90;1.27;;;1.40;99.90;;;;;;5012377;28;20026;-60
2021/01/14 04:34:26;;;;;;;9.20;1.30;;;1.40;99.90;;;;;;5013104;28;20026;-59
2021/01/14 04:36:59;;;;;;;8.35;1.25;;;1.40;99.90;;;;;;5013143;28;20484;-59
2021/01/14 04:39:25;;;;;;;5.63;1.15;;;1.40;99.90;;;;;;5013240;28;20033;-58
2021/01/14 04:41:58;;;;;;;12.35;1.50;;;1.40;99.90;;;;;;5013170;28;20030;-59
2021/01/14 04:44:27;;;;;;;9.03;1.33;;;1.40;99.90;;;;;;5013432;28;20022;-60
2021/01/14 04:47:12;;;;;;;10.85;1.80;;;1.40;99.90;;;;;;5012974;28;20030;-59
2021/01/14 04:49:38;;;;;;;7.68;1.35;;;1.30;99.90;;;;;;5012690;28;20113;-59
2021/01/14 04:52:04;;;;;;;5.97;1.70;;;1.30;99.90;;;;;;5007641;28;20102;-59
2021/01/14 04:54:35;;;;;;;4.70;0.95;;;1.30;99.90;;;;;;5008803;28;20025;-60
2021/01/14 04:57:22;;;;;;;20.13;1.77;;;1.30;99.90;;;;;;5012347;28;20072;-58
2021/01/14 04:59:52;;;;;;;9.43;1.50;;;1.30;99.90;;;;;;5025292;28;20069;-58
2021/01/14 05:02:25;;;;;;;16.70;1.73;;;1.30;99.90;;;;;;5012550;28;20018;-60
2021/01/14 05:04:52;;;;;;;11.80;1.30;;;1.30;99.90;;;;;;5012274;28;20527;-59
2021/01/14 05:07:31;;;;;;;10.65;1.20;;;1.30;99.90;;;;;;5003435;28;20065;-60
2021/01/14 05:10:05;;;;;;;14.02;2.92;;;1.30;99.90;;;;;;5007246;28;20042;-60
2021/01/14 05:12:32;;;;;;;;;;;1.30;99.90;;;;;;5012414;28;20026;-54
2021/01/14 05:14:58;;;;;;;5.85;1.08;;;1.30;99.90;;;;;;5011247;28;20453;-58
2021/01/14 05:17:24;;;;;;;13.88;1.40;;;1.30;99.90;;;;;;5012666;28;20085;-61
2021/01/14 05:19:56;;;;;;;7.35;1.33;;;1.30;99.90;;;;;;5010912;28;20022;-59
2021/01/14 05:22:25;;;;;;;11.70;1.75;;;1.30;99.90;;;;;;5012543;28;20061;-60
2021/01/14 05:25:05;;;;;;;12.65;1.60;;;1.30;99.90;;;;;;5012537;28;20450;-60
2021/01/14 05:27:31;;;;;;;10.80;1.58;;;1.30;99.90;;;;;;5007595;28;20026;-59
2021/01/14 05:30:11;;;;;;;9.68;1.55;;;1.30;99.90;;;;;;5005645;28;20080;-56
2021/01/14 05:32:45;;;;;;;5.60;1.10;;;1.30;99.90;;;;;;5008705;28;20052;-59
2021/01/14 05:35:13;;;;;;;6.13;1.42;;;1.20;99.90;;;;;;5009998;28;20022;-58
2021/01/14 05:37:43;;;;;;;15.77;1.35;;;1.20;99.90;;;;;;5004086;28;20037;-60
2021/01/14 05:40:11;;;;;;;5.43;1.55;;;1.10;99.90;;;;;;5004976;28;20392;-60
2021/01/14 05:42:38;;;;;;;10.95;1.13;;;1.00;99.90;;;;;;5012658;28;20113;-59
2021/01/14 05:45:05;;;;;;;10.85;1.52;;;1.00;99.90;;;;;;5010581;28;20040;-58
2021/01/14 05:47:31;;;;;;;9.77;1.35;;;0.90;99.90;;;;;;5008454;28;20112;-59
2021/01/14 05:49:58;;;;;;;9.55;1.50;;;0.80;99.90;;;;;;5011700;28;20105;-59
2021/01/14 05:52:25;;;;;;;10.23;1.50;;;0.80;99.90;;;;;;5011896;28;20501;-60
2021/01/14 05:55:07;;;;;;;11.65;1.42;;;0.70;99.90;;;;;;5008387;28;20056;-60
2021/01/14 05:57:35;;;;;;;6.80;1.55;;;0.70;99.90;;;;;;4954460;28;20471;-57
2021/01/14 06:00:12;;;;;;;6.72;1.70;;;0.70;99.90;;;;;;5011109;28;20025;-58
2021/01/14 06:02:38;;;;;;;13.90;1.63;;;0.70;99.90;;;;;;5010179;28;20041;-58
2021/01/14 06:05:27;;;;;;;29.35;7.85;;;0.70;99.90;;;;;;5010747;28;20018;-61
2021/01/14 06:07:54;;;;;;;19.55;4.97;;;0.70;99.90;;;;;;5008111;28;20034;-59
2021/01/14 06:10:31;;;;;;;11.35;2.17;;;0.70;99.90;;;;;;5008679;28;20547;-61
2021/01/14 06:12:57;;;;;;;6.75;1.60;;;0.70;99.90;;;;;;5011271;28;20484;-61
2021/01/14 06:15:22;;;;;;;15.15;1.83;;;0.70;99.90;;;;;;5024912;28;20037;-57
2021/01/14 06:17:48;;;;;;;8.02;1.30;;;0.70;99.90;;;;;;5009738;28;20033;-57
2021/01/14 06:20:14;;;;;;;15.18;1.80;;;0.80;99.90;;;;;;5010756;28;20110;-59
2021/01/14 06:22:43;;;;;;;9.30;2.30;;;0.80;99.90;;;;;;5010544;28;20017;-60
2021/01/14 06:25:10;;;;;;;7.80;1.63;;;0.80;99.90;;;;;;5008938;28;20057;-63
2021/01/14 06:27:35;;;;;;;26.00;1.73;;;0.80;99.90;;;;;;5010456;28;20034;-58
2021/01/14 06:30:09;;;;;;;8.60;1.83;;;0.80;99.90;;;;;;5010577;28;20108;-55
2021/01/14 06:32:38;;;;;;;6.22;1.30;;;0.80;99.90;;;;;;5010676;28;20029;-60
2021/01/14 06:35:06;;;;;;;5.80;1.60;;;0.80;99.90;;;;;;5004455;28;20061;-59
2021/01/14 06:37:37;;;;;;;10.80;1.40;;;0.80;99.90;;;;;;5010684;28;20488;-61
2021/01/14 06:40:04;;;;;;;13.70;2.08;;;0.80;99.90;;;;;;5009592;28;20092;-60
2021/01/14 06:42:35;;;;;;;5.53;1.02;;;0.80;99.90;;;;;;5010930;28;20030;-59
2021/01/14 06:45:11;;;;;;;12.32;2.47;;;0.80;99.90;;;;;;5010259;28;20064;-56
2021/01/14 06:47:45;;;;;;;8.00;1.20;;;0.80;99.90;;;;;;5010269;28;20017;-61
2021/01/14 06:50:23;;;;;;;8.98;1.38;;;0.80;99.90;;;;;;5010005;28;20045;-60
2021/01/14 06:52:57;;;;;;;10.82;1.45;;;0.80;99.90;;;;;;5010750;28;20026;-61
2021/01/14 06:55:25;;;;;;;9.57;1.73;;;0.80;99.90;;;;;;5009226;28;20057;-60
2021/01/14 06:58:09;;;;;;;9.85;1.85;;;0.80;99.90;;;;;;4999117;28;20053;-58
2021/01/14 07:00:40;;;;;;;8.98;1.33;;;0.80;99.90;;;;;;5006616;28;20029;-60
2021/01/14 07:03:21;;;;;;;9.30;1.65;;;0.80;99.90;;;;;;5007068;28;20045;-60
2021/01/14 07:05:53;;;;;;;11.68;1.65;;;0.80;99.90;;;;;;5007496;28;20045;-59
2021/01/14 07:08:41;;;;;;;8.50;1.40;;;0.80;99.90;;;;;;5011041;28;20030;-59
2021/01/14 07:11:14;;;;;;;9.43;1.85;;;0.90;99.90;;;;;;5008712;28;20492;-61
2021/01/14 07:13:44;;;;;;;8.40;1.20;;;0.90;99.90;;;;;;5008298;28;20033;-61
2021/01/14 07:16:12;;;;;;;15.82;1.80;;;0.90;99.90;;;;;;5009147;28;20026;-59
2021/01/14 07:18:38;;;;;;;11.93;1.45;;;0.80;99.90;;;;;;5009728;28;20037;-59
2021/01/14 07:21:07;;;;;;;16.15;2.40;;;0.90;99.90;;;;;;5008208;28;20061;-59
2021/01/14 07:23:38;;;;;;;7.97;1.92;;;0.90;99.90;;;;;;5008649;28;20041;-60
2021/01/14 07:26:05;;;;;;;15.70;1.90;;;0.90;99.90;;;;;;5009594;28;20034;-57
2021/01/14 07:28:35;;;;;;;9.43;1.70;;;0.90;99.90;;;;;;5009528;28;20033;-60
2021/01/14 07:31:18;;;;;;;5.85;1.52;;;0.90;99.90;;;;;;5009189;28;20543;-61
2021/01/14 07:33:43;;;;;;;9.90;2.30;;;0.90;99.90;;;;;;5008025;28;20050;-58
2021/01/14 07:36:17;;;;;;;9.90;1.83;;;0.90;99.90;;;;;;5009638;28;20064;-60
2021/01/14 07:39:08;;;;;;;7.82;1.90;;;0.90;99.90;;;;;;5009632;28;20116;-60
2021/01/14 07:41:57;;;;;;;12.07;1.90;;;0.90;99.90;;;;;;5008401;28;20492;-59
2021/01/14 07:44:24;;;;;;;7.88;2.05;;;0.90;99.90;;;;;;5008284;28;20480;-60
2021/01/14 07:46:50;;;;;;;6.50;1.60;;;0.90;99.90;;;;;;5008768;28;20423;-61
2021/01/14 07:49:28;;;;;;;8.27;1.60;;;0.90;99.90;;;;;;5009538;28;20390;-59
2021/01/14 07:51:54;;;;;;;13.23;2.05;;;0.90;99.90;;;;;;5009488;28;20049;-59
2021/01/14 07:54:20;;;;;;;8.57;1.85;;;1.00;99.90;;;;;;5008996;28;20030;-60
2021/01/14 07:56:51;;;;;;;11.27;1.70;;;1.00;99.90;;;;;;4998457;28;20096;-58
2021/01/14 07:59:29;;;;;;;9.30;1.67;;;0.90;99.90;;;;;;5005060;28;20033;-60
2021/01/14 08:02:04;;;;;;;10.57;1.75;;;0.90;99.90;;;;;;5010010;28;20052;-59
2021/01/14 08:04:29;;;;;;;;;;;1.00;99.90;;;;;;5010240;28;20025;-59
2021/01/14 08:06:55;;;;;;;8.32;2.25;;;1.00;99.90;;;;;;5008618;28;20271;-60
2021/01/14 08:09:22;;;;;;;14.18;1.80;;;1.00;99.90;;;;;;5009882;28;20126;-60
2021/01/14 08:11:47;;;;;;;9.73;2.08;;;1.00;99.90;;;;;;5008799;28;20487;-58
2021/01/14 08:14:18;;;;;;;8.32;1.95;;;1.10;99.90;;;;;;5010319;28;20068;-58
2021/01/14 08:16:55;;;;;;;8.50;2.22;;;1.10;99.90;;;;;;5008523;28;20018;-57
2021/01/14 08:19:33;;;;;;;7.00;1.60;;;1.20;99.90;;;;;;5013081;28;20105;-60
2021/01/14 08:21:58;;;;;;;6.70;1.98;;;1.20;99.90;;;;;;5012604;28;20076;-60
2021/01/14 08:25:12;;;;;;;6.25;1.63;;;1.20;99.90;;;;;;5013449;28;20499;-59
2021/01/14 08:27:38;;;;;;;14.23;1.50;;;1.20;99.90;;;;;;5004454;28;20100;-59
2021/01/14 08:30:15;;;;;;;15.20;1.98;;;1.30;99.90;;;;;;5012213;28;20613;-60
2021/01/14 08:32:47;;;;;;;9.63;2.45;;;1.40;99.90;;;;;;5009808;28;20080;-59
2021/01/14 08:35:15;;;;;;;10.98;1.73;;;1.40;99.90;;;;;;5004929;28;20022;-61
2021/01/14 08:37:48;;;;;;;9.18;2.05;;;1.40;99.90;;;;;;5012699;28;20084;-60
2021/01/14 08:40:14;;;;;;;16.95;2.08;;;1.50;99.90;;;;;;5012402;28;20105;-61
2021/01/14 08:42:45;;;;;;;6.35;2.08;;;1.50;99.90;;;;;;5012486;28;20101;-59
2021/01/14 08:45:14;;;;;;;12.23;2.17;;;1.60;99.90;;;;;;5012276;28;20541;-58
2021/01/14 08:47:52;;;;;;;10.48;1.95;;;1.60;99.90;;;;;;5008043;28;20457;-60
2021/01/14 08:50:18;;;;;;;9.55;2.30;;;1.60;99.90;;;;;;5010698;28;20517;-60
2021/01/14 08:52:45;;;;;;;8.07;2.08;;;1.60;99.90;;;;;;5010459;28;20467;-60
2021/01/14 08:55:13;;;;;;;3.30;1.50;;;1.80;99.90;;;;;;5012859;28;20049;-60
2021/01/14 08:57:52;;;;;;;8.90;1.98;;;1.90;99.90;;;;;;4999992;28;21793;-60
2021/01/14 09:00:19;;;;;;;8.30;1.58;;;1.90;99.90;;;;;;5011910;28;20026;-61
2021/01/14 09:02:45;;;;;;;8.52;2.50;;;1.90;99.90;;;;;;5008898;28;20046;-59
2021/01/14 09:05:12;;;;;;;8.73;2.38;;;2.00;99.90;;;;;;5009948;28;20037;-59
2021/01/14 09:07:37;;;;;;;10.30;2.10;;;2.10;99.90;;;;;;5011677;28;20399;-61
2021/01/14 09:10:04;;;;;;;13.48;2.38;;;2.10;99.90;;;;;;5011973;28;20018;-58
2021/01/14 09:12:29;;;;;;;7.18;2.33;;;2.10;99.90;;;;;;5007893;28;20026;-62
2021/01/14 09:14:55;;;;;;;8.85;1.75;;;2.10;99.90;;;;;;5007305;28;20369;-56
2021/01/14 09:17:20;;;;;;;12.77;1.98;;;2.10;99.90;;;;;;5011547;28;20029;-61
2021/01/14 09:19:53;;;;;;;14.07;3.33;;;2.10;99.90;;;;;;5011667;28;20040;-60
2021/01/14 09:22:26;;;;;;;12.05;3.80;;;2.20;99.90;;;;;;5011190;28;20104;-61
2021/01/14 09:24:52;;;;;;;11.25;4.22;;;2.20;99.90;;;;;;5009799;28;20026;-60
2021/01/14 09:27:17;;;;;;;11.32;4.22;;;2.30;99.90;;;;;;5010246;28;20052;-61
2021/01/14 09:29:43;;;;;;;9.90;2.90;;;2.40;99.90;;;;;;5010267;28;20030;-57
2021/01/14 09:32:12;;;;;;;7.25;2.38;;;2.40;99.90;;;;;;5011343;28;20077;-61
2021/01/14 09:34:38;;;;;;;8.50;2.70;;;2.50;99.90;;;;;;5011573;28;20026;-53
2021/01/14 09:37:20;;;;;;;10.63;3.05;;;2.40;99.90;;;;;;5010603;28;20096;-60
2021/01/14 09:39:46;;;;;;;9.70;2.80;;;2.50;99.90;;;;;;5011865;28;20018;-58
2021/01/14 09:42:13;;;;;;;12.63;2.72;;;2.60;99.90;;;;;;5010787;28;20018;-61
2021/01/14 09:44:39;;;;;;;7.22;1.67;;;2.60;99.90;;;;;;5010990;28;20022;-61
2021/01/14 09:47:05;;;;;;;12.18;2.35;;;2.60;99.90;;;;;;5011064;28;20620;-59
2021/01/14 09:49:31;;;;;;;12.98;3.80;;;2.50;99.90;;;;;;5010543;28;20018;-60
2021/01/14 09:51:57;;;;;;;8.05;3.50;;;2.60;99.90;;;;;;5011052;28;20088;-58
2021/01/14 09:54:23;;;;;;;15.30;3.83;;;2.60;99.90;;;;;;5011435;28;20504;-59
2021/01/14 09:56:59;;;;;;;10.73;3.53;;;2.60;99.90;;;;;;4999673;28;20052;-59
2021/01/14 09:59:41;;;;;;;16.90;2.95;;;2.70;99.90;;;;;;5010727;28;20026;-61
2021/01/14 10:02:26;;;;;;;14.45;3.90;;;2.80;99.90;;;;;;5004671;28;20037;-60
2021/01/14 10:05:00;;;;;;;11.70;3.50;;;2.80;99.90;;;;;;5010120;28;20491;-60
2021/01/14 10:07:26;;;;;;;10.40;2.80;;;2.80;99.90;;;;;;5010401;28;20033;-58
2021/01/14 10:09:53;;;;;;;9.13;2.67;;;2.80;99.90;;;;;;5001978;28;20029;-60
2021/01/14 10:12:19;;;;;;;8.10;3.00;;;2.80;99.90;;;;;;5011192;28;20496;-62
2021/01/14 10:14:45;;;;;;;12.43;2.92;;;2.80;99.90;;;;;;5016811;28;20029;-61
2021/01/14 10:17:13;;;;;;;5.68;1.98;;;2.80;99.90;;;;;;5010575;28;20025;-59
2021/01/14 10:19:40;;;;;;;8.57;2.10;;;2.70;99.90;;;;;;5010829;28;20033;-61
2021/01/14 10:22:06;;;;;;;12.32;3.38;;;2.70;99.90;;;;;;5008167;28;20432;-60
2021/01/14 10:24:33;;;;;;;13.50;2.78;;;2.80;99.90;;;;;;5008904;28;20033;-58
2021/01/14 10:27:18;;;;;;;7.38;2.10;;;2.90;99.90;;;;;;5009236;28;20388;-58
2021/01/14 10:29:45;;;;;;;16.42;2.38;;;2.90;99.90;;;;;;5010110;28;20061;-61
2021/01/14 10:32:37;;;;;;;7.65;2.13;;;3.00;99.90;;;;;;5010612;28;20064;-60
2021/01/14 10:35:03;;;;;;;8.27;2.30;;;2.90;99.90;;;;;;5008248;28;20070;-59
2021/01/14 10:37:35;;;;;;;5.63;1.85;;;2.90;99.90;;;;;;5009864;28;20061;-60
2021/01/14 10:40:03;;;;;;;8.68;2.00;;;2.90;99.90;;;;;;5010484;28;20393;-59
2021/01/14 10:42:38;;;;;;;7.60;1.90;;;2.90;99.90;;;;;;5006706;28;20017;-61
2021/01/14 10:45:09;;;;;;;8.82;2.33;;;2.90;99.90;;;;;;5009200;28;20053;-60
2021/01/14 10:47:37;;;;;;;5.85;1.90;;;3.00;99.90;;;;;;4988183;28;20030;-59
2021/01/14 10:50:23;;;;;;;6.22;1.92;;;2.90;99.90;;;;;;4995886;28;20468;-57
2021/01/14 10:53:04;;;;;;;10.00;1.70;;;3.00;99.90;;;;;;5008146;28;20021;-61
2021/01/14 10:55:30;;;;;;;7.45;1.70;;;3.10;99.90;;;;;;5005720;28;20072;-61
2021/01/14 10:57:57;;;;;;;7.05;2.30;;;3.30;99.90;;;;;;4998142;28;20049;-60
2021/01/14 11:00:25;;;;;;;4.75;2.28;;;3.30;99.90;;;;;;5009789;28;20034;-60
2021/01/14 11:03:12;;;;;;;9.35;1.92;;;3.30;99.90;;;;;;5009058;28;20064;-61
2021/01/14 11:05:52;;;;;;;6.68;2.05;;;3.10;99.90;;;;;;5004340;28;20030;-60
2021/01/14 11:08:19;;;;;;;7.43;1.83;;;3.20;99.90;;;;;;5009846;28;20057;-62
2021/01/14 11:11:02;;;;;;;8.57;2.30;;;3.30;99.90;;;;;;5005443;28;20029;-60
2021/01/14 11:13:46;;;;;;;4.67;2.00;;;3.30;99.90;;;;;;5013316;28;20018;-60
2021/01/14 11:16:13;;;;;;;7.72;2.03;;;3.20;99.90;;;;;;5006139;28;20289;-62
2021/01/14 11:18:50;;;;;;;6.53;2.00;;;3.40;99.90;;;;;;5009216;28;20034;-60
2021/01/14 11:21:30;;;;;;;5.60;2.03;;;3.40;99.90;;;;;;5007578;28;20037;-60
2021/01/14 11:23:56;;;;;;;9.40;2.38;;;3.30;99.90;;;;;;5009088;28;20038;-60
2021/01/14 11:26:22;;;;;;;14.48;2.00;;;3.30;99.90;;;;;;5009263;28;20024;-60
2021/01/14 11:28:49;;;;;;;4.65;1.52;;;3.20;99.90;;;;;;5008749;28;20030;-61
2021/01/14 11:31:16;;;;;;;3.88;1.60;;;3.10;99.90;;;;;;5008852;28;20117;-60
2021/01/14 11:33:43;;;;;;;8.32;2.55;;;3.20;99.90;;;;;;5008131;28;20132;-58
2021/01/14 11:36:10;;;;;;;3.92;1.77;;;3.00;99.90;;;;;;5003598;28;20444;-60
2021/01/14 11:38:36;;;;;;;9.52;2.67;;;3.00;99.90;;;;;;5010016;28;20034;-59
2021/01/14 11:41:02;;;;;;;7.18;2.47;;;3.00;99.90;;;;;;5007776;28;20033;-58
2021/01/14 11:43:28;;;;;;;4.97;1.90;;;3.00;99.90;;;;;;5008034;28;20426;-57
2021/01/14 11:45:54;;;;;;;9.88;1.85;;;3.10;99.90;;;;;;5008179;28;20048;-59
2021/01/14 11:48:20;;;;;;;11.70;2.20;;;3.00;99.90;;;;;;5009891;28;20034;-60
2021/01/14 11:50:46;;;;;;;7.40;2.25;;;3.10;99.90;;;;;;5009052;28;20034;-59
2021/01/14 11:53:11;;;;;;;4.47;1.90;;;3.10;99.90;;;;;;5012908;28;20021;-59
2021/01/14 11:55:37;;;;;;;7.57;2.30;;;3.10;99.90;;;;;;5013415;28;20449;-60
2021/01/14 11:58:03;;;;;;;5.65;2.85;;;3.10;99.90;;;;;;5000608;28;20050;-53
2021/01/14 12:00:28;;;;;;;10.35;2.05;;;3.10;99.90;;;;;;5010872;28;20034;-59
2021/01/14 12:02:54;;;;;;;7.03;1.92;;;3.00;99.90;;;;;;5012908;28;20046;-59
2021/01/14 12:05:20;;;;;;;4.50;1.70;;;2.90;99.90;;;;;;5006980;28;20046;-59
2021/01/14 12:07:45;;;;;;;3.92;1.88;;;2.90;99.90;;;;;;5010663;28;20033;-61
2021/01/14 12:10:11;;;;;;;8.02;2.15;;;3.00;99.90;;;;;;5012951;28;20026;-60
2021/01/14 12:12:37;;;;;;;6.32;2.20;;;3.00;99.90;;;;;;5013350;28;20033;-59
2021/01/14 12:15:05;;;;;;;6.55;1.75;;;3.00;99.90;;;;;;5007239;28;20791;-59
2021/01/14 12:17:31;;;;;;;6.30;1.70;;;3.10;99.90;;;;;;5013531;28;20022;-61
2021/01/14 12:19:57;;;;;;;3.78;1.52;;;3.00;99.90;;;;;;5013246;28;20059;-60
2021/01/14 12:22:22;;;;;;;4.18;1.70;;;3.10;99.90;;;;;;5010311;28;20116;-59
2021/01/14 12:24:48;;;;;;;4.35;1.60;;;3.10;99.90;;;;;;5011039;28;20037;-60
2021/01/14 12:27:14;;;;;;;3.85;1.92;;;3.20;99.90;;;;;;5006593;28;20116;-59
2021/01/14 12:29:40;;;;;;;3.00;1.60;;;3.10;99.90;;;;;;5012282;28;20022;-60
2021/01/14 12:32:05;;;;;;;6.78;1.70;;;3.30;99.90;;;;;;5012311;28;20123;-60
2021/01/14 12:34:32;;;;;;;10.07;2.67;;;3.40;99.90;;;;;;5008818;28;20480;-59
2021/01/14 12:36:57;;;;;;;7.50;2.40;;;3.50;99.90;;;;;;5010051;28;20080;-58
2021/01/14 12:39:24;;;;;;;5.05;1.80;;;3.50;99.90;;;;;;5008463;28;20419;-59
2021/01/14 12:41:49;;;;;;;7.60;2.08;;;3.50;99.90;;;;;;5010253;28;20022;-59
2021/01/14 12:44:15;;;;;;;7.68;1.85;;;3.50;99.90;;;;;;5007228;28;20033;-57
2021/01/14 12:46:46;;;;;;;3.80;1.52;;;3.50;99.90;;;;;;5010153;28;20058;-58
2021/01/14 12:49:12;;;;;;;6.78;1.50;;;3.50;99.90;;;;;;5011867;28;20096;-59
2021/01/14 12:51:39;;;;;;;4.97;1.50;;;3.50;99.90;;;;;;5009517;28;20113;-59
2021/01/14 12:54:05;;;;;;;3.08;1.40;;;3.50;99.90;;;;;;5010364;28;20029;-60
2021/01/14 12:56:31;;;;;;;3.53;1.65;;;3.50;99.90;;;;;;5006872;28;20492;-58
2021/01/14 12:58:57;;;;;;;7.28;1.60;;;3.50;99.90;;;;;;4999808;28;20050;-59
2021/01/14 13:01:32;;;;;;;3.92;1.65;;;3.60;99.90;;;;;;5008162;28;20024;-59
2021/01/14 13:04:03;;;;;;;3.67;1.40;;;3.60;99.90;;;;;;5009770;28;20026;-60